sensor_id;sensor_type;location;lat;lon;timestamp;P1;durP1;ratioP1;P2;durP2;ratioP2
17382;SDS011;8809;51.892;8.384;2022-12-18T00:00:47;36.50;;;18.75;;
17382;SDS011;8809;51.892;8.384;2022-12-18T00:03:14;38.05;;;20.20;;
17382;SDS011;8809;51.892;8.384;2022-12-18T00:05:47;35.15;;;19.88;;
17382;SDS011;8809;51.892;8.384;2022-12-18T00:08:14;37.55;;;18.67;;
17382;SDS011;8809;51.892;8.384;2022-12-18T00:10:43;34.35;;;19.02;;
17382;SDS011;8809;51.892;8.384;2022-12-18T00:13:11;32.90;;;18.00;;
17382;SDS011;8809;51.892;8.384;2022-12-18T00:15:38;31.17;;;17.20;;
17382;SDS011;8809;51.892;8.384;2022-12-18T00:18:06;30.63;;;16.73;;
17382;SDS011;8809;51.892;8.384;2022-12-18T00:20:35;32.75;;;18.30;;
17382;SDS011;8809;51.892;8.384;2022-12-18T00:23:03;45.50;;;21.42;;
17382;SDS011;8809;51.892;8.384;2022-12-18T00:25:32;43.00;;;21.92;;
17382;SDS011;8809;51.892;8.384;2022-12-18T00:28:00;38.08;;;19.95;;
17382;SDS011;8809;51.892;8.384;2022-12-18T00:30:28;36.42;;;19.45;;
17382;SDS011;8809;51.892;8.384;2022-12-18T00:32:55;36.45;;;18.17;;
17382;SDS011;8809;51.892;8.384;2022-12-18T00:35:22;33.42;;;17.70;;
17382;SDS011;8809;51.892;8.384;2022-12-18T00:37:49;28.45;;;17.17;;
17382;SDS011;8809;51.892;8.384;2022-12-18T00:40:15;32.80;;;16.00;;
17382;SDS011;8809;51.892;8.384;2022-12-18T00:42:42;31.90;;;16.08;;
17382;SDS011;8809;51.892;8.384;2022-12-18T00:45:25;31.42;;;16.25;;
17382;SDS011;8809;51.892;8.384;2022-12-18T00:47:53;25.90;;;14.80;;
17382;SDS011;8809;51.892;8.384;2022-12-18T00:50:21;25.33;;;15.88;;
17382;SDS011;8809;51.892;8.384;2022-12-18T00:52:48;30.15;;;15.50;;
17382;SDS011;8809;51.892;8.384;2022-12-18T00:55:15;32.20;;;17.73;;
17382;SDS011;8809;51.892;8.384;2022-12-18T00:57:42;29.08;;;15.07;;
17382;SDS011;8809;51.892;8.384;2022-12-18T01:00:10;27.02;;;15.85;;
17382;SDS011;8809;51.892;8.384;2022-12-18T01:02:43;29.08;;;15.75;;
17382;SDS011;8809;51.892;8.384;2022-12-18T01:05:10;24.88;;;14.75;;
17382;SDS011;8809;51.892;8.384;2022-12-18T01:07:38;25.30;;;14.38;;
17382;SDS011;8809;51.892;8.384;2022-12-18T01:10:09;26.52;;;14.00;;
17382;SDS011;8809;51.892;8.384;2022-12-18T01:12:39;23.50;;;14.43;;
17382;SDS011;8809;51.892;8.384;2022-12-18T01:15:07;27.30;;;14.27;;
17382;SDS011;8809;51.892;8.384;2022-12-18T01:17:34;27.98;;;14.63;;
17382;SDS011;8809;51.892;8.384;2022-12-18T01:20:03;24.05;;;14.40;;
17382;SDS011;8809;51.892;8.384;2022-12-18T01:22:33;24.90;;;12.73;;
17382;SDS011;8809;51.892;8.384;2022-12-18T01:25:00;23.08;;;13.80;;
17382;SDS011;8809;51.892;8.384;2022-12-18T01:27:27;24.42;;;13.35;;
17382;SDS011;8809;51.892;8.384;2022-12-18T01:29:53;24.10;;;12.60;;
17382;SDS011;8809;51.892;8.384;2022-12-18T01:32:20;20.25;;;12.07;;
17382;SDS011;8809;51.892;8.384;2022-12-18T01:34:47;20.45;;;11.95;;
17382;SDS011;8809;51.892;8.384;2022-12-18T01:37:15;20.05;;;11.75;;
17382;SDS011;8809;51.892;8.384;2022-12-18T01:39:42;17.85;;;11.20;;
17382;SDS011;8809;51.892;8.384;2022-12-18T01:42:10;17.17;;;10.85;;
17382;SDS011;8809;51.892;8.384;2022-12-18T01:47:26;15.63;;;9.98;;
17382;SDS011;8809;51.892;8.384;2022-12-18T01:49:57;18.80;;;10.40;;
17382;SDS011;8809;51.892;8.384;2022-12-18T01:52:28;25.17;;;11.68;;
17382;SDS011;8809;51.892;8.384;2022-12-18T01:54:58;15.13;;;10.23;;
17382;SDS011;8809;51.892;8.384;2022-12-18T01:57:27;15.75;;;9.77;;
17382;SDS011;8809;51.892;8.384;2022-12-18T01:59:57;17.25;;;9.75;;
17382;SDS011;8809;51.892;8.384;2022-12-18T02:02:27;17.20;;;9.73;;
17382;SDS011;8809;51.892;8.384;2022-12-18T02:04:55;16.40;;;10.32;;
17382;SDS011;8809;51.892;8.384;2022-12-18T02:07:24;14.40;;;9.07;;
17382;SDS011;8809;51.892;8.384;2022-12-18T02:10:02;16.50;;;9.65;;
17382;SDS011;8809;51.892;8.384;2022-12-18T02:12:37;14.55;;;8.80;;
17382;SDS011;8809;51.892;8.384;2022-12-18T02:15:12;14.98;;;8.57;;
17382;SDS011;8809;51.892;8.384;2022-12-18T02:17:46;13.73;;;9.00;;
17382;SDS011;8809;51.892;8.384;2022-12-18T02:20:17;15.48;;;9.02;;
17382;SDS011;8809;51.892;8.384;2022-12-18T02:22:53;13.90;;;8.20;;
17382;SDS011;8809;51.892;8.384;2022-12-18T02:25:38;14.63;;;7.40;;
17382;SDS011;8809;51.892;8.384;2022-12-18T02:28:14;13.57;;;7.95;;
17382;SDS011;8809;51.892;8.384;2022-12-18T02:30:45;10.35;;;7.45;;
17382;SDS011;8809;51.892;8.384;2022-12-18T02:33:15;13.73;;;7.28;;
17382;SDS011;8809;51.892;8.384;2022-12-18T02:35:45;11.80;;;7.57;;
17382;SDS011;8809;51.892;8.384;2022-12-18T02:38:14;12.88;;;7.78;;
17382;SDS011;8809;51.892;8.384;2022-12-18T02:40:43;15.45;;;8.32;;
17382;SDS011;8809;51.892;8.384;2022-12-18T02:43:14;12.18;;;7.20;;
17382;SDS011;8809;51.892;8.384;2022-12-18T02:45:48;13.10;;;8.27;;
17382;SDS011;8809;51.892;8.384;2022-12-18T02:48:18;14.13;;;7.72;;
17382;SDS011;8809;51.892;8.384;2022-12-18T02:50:51;12.60;;;7.75;;
17382;SDS011;8809;51.892;8.384;2022-12-18T02:53:27;14.18;;;7.18;;
17382;SDS011;8809;51.892;8.384;2022-12-18T02:56:01;11.90;;;7.72;;
17382;SDS011;8809;51.892;8.384;2022-12-18T02:58:36;12.07;;;8.05;;
17382;SDS011;8809;51.892;8.384;2022-12-18T03:01:14;12.00;;;7.45;;
17382;SDS011;8809;51.892;8.384;2022-12-18T03:03:46;12.00;;;7.20;;
17382;SDS011;8809;51.892;8.384;2022-12-18T03:06:20;11.60;;;6.35;;
17382;SDS011;8809;51.892;8.384;2022-12-18T03:08:51;9.68;;;6.20;;
17382;SDS011;8809;51.892;8.384;2022-12-18T03:11:23;10.55;;;7.13;;
17382;SDS011;8809;51.892;8.384;2022-12-18T03:14:07;8.68;;;5.95;;
17382;SDS011;8809;51.892;8.384;2022-12-18T03:16:36;9.10;;;5.95;;
17382;SDS011;8809;51.892;8.384;2022-12-18T03:19:04;9.93;;;5.70;;
17382;SDS011;8809;51.892;8.384;2022-12-18T03:21:36;8.30;;;5.50;;
17382;SDS011;8809;51.892;8.384;2022-12-18T03:24:07;8.25;;;5.38;;
17382;SDS011;8809;51.892;8.384;2022-12-18T03:26:36;10.02;;;5.57;;
17382;SDS011;8809;51.892;8.384;2022-12-18T03:29:08;8.55;;;5.50;;
17382;SDS011;8809;51.892;8.384;2022-12-18T03:31:39;8.03;;;5.17;;
17382;SDS011;8809;51.892;8.384;2022-12-18T03:34:09;6.97;;;5.03;;
17382;SDS011;8809;51.892;8.384;2022-12-18T03:36:39;8.02;;;4.70;;
17382;SDS011;8809;51.892;8.384;2022-12-18T03:39:06;8.50;;;4.90;;
17382;SDS011;8809;51.892;8.384;2022-12-18T03:41:34;7.43;;;4.72;;
17382;SDS011;8809;51.892;8.384;2022-12-18T03:44:11;7.28;;;4.65;;
17382;SDS011;8809;51.892;8.384;2022-12-18T03:46:41;6.05;;;4.38;;
17382;SDS011;8809;51.892;8.384;2022-12-18T03:49:19;7.32;;;4.90;;
17382;SDS011;8809;51.892;8.384;2022-12-18T03:51:52;8.73;;;5.20;;
17382;SDS011;8809;51.892;8.384;2022-12-18T03:54:26;8.10;;;5.20;;
17382;SDS011;8809;51.892;8.384;2022-12-18T03:56:57;5.90;;;4.43;;
17382;SDS011;8809;51.892;8.384;2022-12-18T03:59:28;4.78;;;4.00;;
17382;SDS011;8809;51.892;8.384;2022-12-18T04:01:58;6.95;;;4.47;;
17382;SDS011;8809;51.892;8.384;2022-12-18T04:04:27;7.40;;;5.03;;
17382;SDS011;8809;51.892;8.384;2022-12-18T04:06:56;8.55;;;5.35;;
17382;SDS011;8809;51.892;8.384;2022-12-18T04:09:24;6.25;;;4.25;;
17382;SDS011;8809;51.892;8.384;2022-12-18T04:11:52;6.40;;;4.70;;
17382;SDS011;8809;51.892;8.384;2022-12-18T04:14:19;7.35;;;4.47;;
17382;SDS011;8809;51.892;8.384;2022-12-18T04:16:47;5.68;;;4.40;;
17382;SDS011;8809;51.892;8.384;2022-12-18T04:19:14;6.80;;;4.35;;
17382;SDS011;8809;51.892;8.384;2022-12-18T04:21:41;5.65;;;4.00;;
17382;SDS011;8809;51.892;8.384;2022-12-18T04:24:08;5.25;;;4.03;;
17382;SDS011;8809;51.892;8.384;2022-12-18T04:26:35;7.00;;;4.47;;
17382;SDS011;8809;51.892;8.384;2022-12-18T04:29:02;5.03;;;3.45;;
17382;SDS011;8809;51.892;8.384;2022-12-18T04:31:29;5.30;;;3.75;;
17382;SDS011;8809;51.892;8.384;2022-12-18T04:33:57;5.10;;;3.85;;
17382;SDS011;8809;51.892;8.384;2022-12-18T04:36:27;5.10;;;3.45;;
17382;SDS011;8809;51.892;8.384;2022-12-18T04:38:54;6.68;;;4.15;;
17382;SDS011;8809;51.892;8.384;2022-12-18T04:41:21;5.70;;;4.10;;
17382;SDS011;8809;51.892;8.384;2022-12-18T04:43:47;5.00;;;3.88;;
17382;SDS011;8809;51.892;8.384;2022-12-18T04:46:14;4.82;;;3.78;;
17382;SDS011;8809;51.892;8.384;2022-12-18T04:48:41;4.85;;;3.72;;
17382;SDS011;8809;51.892;8.384;2022-12-18T04:51:09;4.78;;;3.70;;
17382;SDS011;8809;51.892;8.384;2022-12-18T04:53:36;4.55;;;3.10;;
17382;SDS011;8809;51.892;8.384;2022-12-18T04:56:04;6.20;;;3.60;;
17382;SDS011;8809;51.892;8.384;2022-12-18T04:58:33;4.85;;;3.55;;
17382;SDS011;8809;51.892;8.384;2022-12-18T05:00:59;5.88;;;3.67;;
17382;SDS011;8809;51.892;8.384;2022-12-18T05:03:27;5.40;;;3.70;;
17382;SDS011;8809;51.892;8.384;2022-12-18T05:05:53;6.72;;;3.88;;
17382;SDS011;8809;51.892;8.384;2022-12-18T05:08:22;5.18;;;3.45;;
17382;SDS011;8809;51.892;8.384;2022-12-18T05:10:48;3.50;;;2.90;;
17382;SDS011;8809;51.892;8.384;2022-12-18T05:13:15;4.60;;;2.97;;
17382;SDS011;8809;51.892;8.384;2022-12-18T05:15:42;5.20;;;3.85;;
17382;SDS011;8809;51.892;8.384;2022-12-18T05:18:17;3.72;;;3.13;;
17382;SDS011;8809;51.892;8.384;2022-12-18T05:20:44;4.55;;;3.30;;
17382;SDS011;8809;51.892;8.384;2022-12-18T05:23:11;4.63;;;3.08;;
17382;SDS011;8809;51.892;8.384;2022-12-18T05:25:39;4.53;;;3.10;;
17382;SDS011;8809;51.892;8.384;2022-12-18T05:28:16;4.22;;;3.20;;
17382;SDS011;8809;51.892;8.384;2022-12-18T05:30:44;3.75;;;2.90;;
17382;SDS011;8809;51.892;8.384;2022-12-18T05:33:14;4.45;;;3.00;;
17382;SDS011;8809;51.892;8.384;2022-12-18T05:35:41;3.00;;;2.70;;
17382;SDS011;8809;51.892;8.384;2022-12-18T05:38:07;3.75;;;3.22;;
17382;SDS011;8809;51.892;8.384;2022-12-18T05:40:34;4.53;;;2.95;;
17382;SDS011;8809;51.892;8.384;2022-12-18T05:43:03;4.32;;;3.22;;
17382;SDS011;8809;51.892;8.384;2022-12-18T05:45:31;3.42;;;3.10;;
17382;SDS011;8809;51.892;8.384;2022-12-18T05:47:58;4.82;;;3.00;;
17382;SDS011;8809;51.892;8.384;2022-12-18T05:50:25;5.80;;;3.28;;
17382;SDS011;8809;51.892;8.384;2022-12-18T05:52:52;3.85;;;3.13;;
17382;SDS011;8809;51.892;8.384;2022-12-18T05:55:18;4.70;;;3.28;;
17382;SDS011;8809;51.892;8.384;2022-12-18T05:57:45;4.00;;;2.97;;
17382;SDS011;8809;51.892;8.384;2022-12-18T06:00:15;4.53;;;2.90;;
17382;SDS011;8809;51.892;8.384;2022-12-18T06:02:46;3.53;;;2.83;;
17382;SDS011;8809;51.892;8.384;2022-12-18T06:05:13;4.00;;;3.08;;
17382;SDS011;8809;51.892;8.384;2022-12-18T06:07:39;4.03;;;3.13;;
17382;SDS011;8809;51.892;8.384;2022-12-18T06:10:08;5.10;;;3.53;;
17382;SDS011;8809;51.892;8.384;2022-12-18T06:12:35;4.70;;;2.90;;
17382;SDS011;8809;51.892;8.384;2022-12-18T06:15:02;4.13;;;3.30;;
17382;SDS011;8809;51.892;8.384;2022-12-18T06:17:31;4.68;;;3.25;;
17382;SDS011;8809;51.892;8.384;2022-12-18T06:19:59;4.82;;;3.60;;
17382;SDS011;8809;51.892;8.384;2022-12-18T06:22:26;4.80;;;3.22;;
17382;SDS011;8809;51.892;8.384;2022-12-18T06:24:53;3.88;;;2.80;;
17382;SDS011;8809;51.892;8.384;2022-12-18T06:27:20;4.97;;;3.35;;
17382;SDS011;8809;51.892;8.384;2022-12-18T06:29:47;3.80;;;3.08;;
17382;SDS011;8809;51.892;8.384;2022-12-18T06:32:14;4.72;;;3.15;;
17382;SDS011;8809;51.892;8.384;2022-12-18T06:34:43;5.30;;;3.63;;
17382;SDS011;8809;51.892;8.384;2022-12-18T06:37:10;5.13;;;3.35;;
17382;SDS011;8809;51.892;8.384;2022-12-18T06:39:36;4.53;;;3.42;;
17382;SDS011;8809;51.892;8.384;2022-12-18T06:42:03;4.85;;;2.97;;
17382;SDS011;8809;51.892;8.384;2022-12-18T06:44:30;4.28;;;3.00;;
17382;SDS011;8809;51.892;8.384;2022-12-18T06:46:57;4.63;;;2.90;;
17382;SDS011;8809;51.892;8.384;2022-12-18T06:49:24;4.90;;;3.42;;
17382;SDS011;8809;51.892;8.384;2022-12-18T06:51:52;5.10;;;3.28;;
17382;SDS011;8809;51.892;8.384;2022-12-18T06:54:19;4.45;;;3.30;;
17382;SDS011;8809;51.892;8.384;2022-12-18T06:56:46;5.78;;;3.63;;
17382;SDS011;8809;51.892;8.384;2022-12-18T06:59:13;3.47;;;3.17;;
17382;SDS011;8809;51.892;8.384;2022-12-18T07:01:40;5.43;;;3.67;;
17382;SDS011;8809;51.892;8.384;2022-12-18T07:04:07;5.88;;;3.60;;
17382;SDS011;8809;51.892;8.384;2022-12-18T07:06:34;5.85;;;3.35;;
17382;SDS011;8809;51.892;8.384;2022-12-18T07:09:02;5.05;;;3.42;;
17382;SDS011;8809;51.892;8.384;2022-12-18T07:11:29;4.22;;;3.03;;
17382;SDS011;8809;51.892;8.384;2022-12-18T07:13:58;4.43;;;3.05;;
17382;SDS011;8809;51.892;8.384;2022-12-18T07:16:25;3.80;;;2.97;;
17382;SDS011;8809;51.892;8.384;2022-12-18T07:18:54;3.85;;;2.67;;
17382;SDS011;8809;51.892;8.384;2022-12-18T07:21:22;4.10;;;3.25;;
17382;SDS011;8809;51.892;8.384;2022-12-18T07:23:50;4.55;;;3.42;;
17382;SDS011;8809;51.892;8.384;2022-12-18T07:26:19;4.45;;;3.42;;
17382;SDS011;8809;51.892;8.384;2022-12-18T07:28:47;3.83;;;3.03;;
17382;SDS011;8809;51.892;8.384;2022-12-18T07:31:15;4.97;;;3.10;;
17382;SDS011;8809;51.892;8.384;2022-12-18T07:33:43;4.50;;;3.38;;
17382;SDS011;8809;51.892;8.384;2022-12-18T07:36:11;5.22;;;3.70;;
17382;SDS011;8809;51.892;8.384;2022-12-18T07:38:38;4.80;;;3.30;;
17382;SDS011;8809;51.892;8.384;2022-12-18T07:41:06;5.32;;;3.50;;
17382;SDS011;8809;51.892;8.384;2022-12-18T07:43:35;6.22;;;4.10;;
17382;SDS011;8809;51.892;8.384;2022-12-18T07:46:02;6.50;;;4.32;;
17382;SDS011;8809;51.892;8.384;2022-12-18T07:48:30;4.90;;;4.30;;
17382;SDS011;8809;51.892;8.384;2022-12-18T07:50:57;7.50;;;4.20;;
17382;SDS011;8809;51.892;8.384;2022-12-18T07:53:25;5.72;;;4.15;;
17382;SDS011;8809;51.892;8.384;2022-12-18T07:55:54;6.93;;;4.22;;
17382;SDS011;8809;51.892;8.384;2022-12-18T07:58:22;6.05;;;4.05;;
17382;SDS011;8809;51.892;8.384;2022-12-18T08:00:50;8.90;;;4.18;;
17382;SDS011;8809;51.892;8.384;2022-12-18T08:03:18;6.75;;;4.72;;
17382;SDS011;8809;51.892;8.384;2022-12-18T08:05:45;6.13;;;4.30;;
17382;SDS011;8809;51.892;8.384;2022-12-18T08:08:12;6.30;;;3.83;;
17382;SDS011;8809;51.892;8.384;2022-12-18T08:10:39;7.30;;;4.65;;
17382;SDS011;8809;51.892;8.384;2022-12-18T08:13:06;7.10;;;4.68;;
17382;SDS011;8809;51.892;8.384;2022-12-18T08:15:33;8.10;;;4.72;;
17382;SDS011;8809;51.892;8.384;2022-12-18T08:18:01;6.13;;;4.55;;
17382;SDS011;8809;51.892;8.384;2022-12-18T08:20:28;8.70;;;5.03;;
17382;SDS011;8809;51.892;8.384;2022-12-18T08:22:54;6.95;;;4.53;;
17382;SDS011;8809;51.892;8.384;2022-12-18T08:25:23;8.93;;;5.30;;
17382;SDS011;8809;51.892;8.384;2022-12-18T08:27:50;6.95;;;4.35;;
17382;SDS011;8809;51.892;8.384;2022-12-18T08:30:16;10.02;;;5.53;;
17382;SDS011;8809;51.892;8.384;2022-12-18T08:32:43;8.38;;;4.97;;
17382;SDS011;8809;51.892;8.384;2022-12-18T08:35:11;6.38;;;4.63;;
17382;SDS011;8809;51.892;8.384;2022-12-18T08:37:39;9.07;;;4.97;;
17382;SDS011;8809;51.892;8.384;2022-12-18T08:40:07;5.65;;;4.45;;
17382;SDS011;8809;51.892;8.384;2022-12-18T08:42:35;6.55;;;4.70;;
17382;SDS011;8809;51.892;8.384;2022-12-18T08:45:19;9.18;;;5.95;;
17382;SDS011;8809;51.892;8.384;2022-12-18T08:47:46;9.63;;;5.72;;
17382;SDS011;8809;51.892;8.384;2022-12-18T08:50:15;8.15;;;5.93;;
17382;SDS011;8809;51.892;8.384;2022-12-18T08:52:41;6.55;;;5.18;;
17382;SDS011;8809;51.892;8.384;2022-12-18T08:55:08;8.82;;;5.85;;
17382;SDS011;8809;51.892;8.384;2022-12-18T08:57:35;9.43;;;5.85;;
17382;SDS011;8809;51.892;8.384;2022-12-18T09:00:03;8.02;;;5.60;;
17382;SDS011;8809;51.892;8.384;2022-12-18T09:02:31;8.77;;;5.85;;
17382;SDS011;8809;51.892;8.384;2022-12-18T09:05:01;8.45;;;5.60;;
17382;SDS011;8809;51.892;8.384;2022-12-18T09:07:29;8.35;;;5.32;;
17382;SDS011;8809;51.892;8.384;2022-12-18T09:09:56;10.32;;;6.28;;
17382;SDS011;8809;51.892;8.384;2022-12-18T09:12:23;9.70;;;6.30;;
17382;SDS011;8809;51.892;8.384;2022-12-18T09:14:50;11.85;;;5.70;;
17382;SDS011;8809;51.892;8.384;2022-12-18T09:17:17;11.02;;;6.45;;
17382;SDS011;8809;51.892;8.384;2022-12-18T09:19:44;9.23;;;6.45;;
17382;SDS011;8809;51.892;8.384;2022-12-18T09:22:10;10.30;;;6.05;;
17382;SDS011;8809;51.892;8.384;2022-12-18T09:24:39;10.55;;;6.28;;
17382;SDS011;8809;51.892;8.384;2022-12-18T09:27:05;12.25;;;6.82;;
17382;SDS011;8809;51.892;8.384;2022-12-18T09:29:32;11.13;;;6.55;;
17382;SDS011;8809;51.892;8.384;2022-12-18T09:31:59;10.40;;;5.97;;
17382;SDS011;8809;51.892;8.384;2022-12-18T09:34:26;9.93;;;6.30;;
17382;SDS011;8809;51.892;8.384;2022-12-18T09:36:53;10.38;;;6.32;;
17382;SDS011;8809;51.892;8.384;2022-12-18T09:39:20;8.85;;;5.72;;
17382;SDS011;8809;51.892;8.384;2022-12-18T09:41:50;7.88;;;5.53;;
17382;SDS011;8809;51.892;8.384;2022-12-18T09:44:25;10.57;;;5.65;;
17382;SDS011;8809;51.892;8.384;2022-12-18T09:49:41;9.65;;;6.22;;
17382;SDS011;8809;51.892;8.384;2022-12-18T09:52:11;9.18;;;6.22;;
17382;SDS011;8809;51.892;8.384;2022-12-18T09:54:42;9.90;;;6.35;;
17382;SDS011;8809;51.892;8.384;2022-12-18T09:57:15;8.18;;;6.25;;
17382;SDS011;8809;51.892;8.384;2022-12-18T09:59:46;9.43;;;6.00;;
17382;SDS011;8809;51.892;8.384;2022-12-18T10:02:19;12.02;;;6.75;;
17382;SDS011;8809;51.892;8.384;2022-12-18T10:04:49;8.85;;;5.93;;
17382;SDS011;8809;51.892;8.384;2022-12-18T10:07:30;8.60;;;5.75;;
17382;SDS011;8809;51.892;8.384;2022-12-18T10:10:17;10.63;;;6.07;;
17382;SDS011;8809;51.892;8.384;2022-12-18T10:12:56;10.85;;;6.57;;
17382;SDS011;8809;51.892;8.384;2022-12-18T10:15:33;10.10;;;6.30;;
17382;SDS011;8809;51.892;8.384;2022-12-18T10:18:11;11.25;;;7.28;;
17382;SDS011;8809;51.892;8.384;2022-12-18T10:20:49;11.05;;;6.70;;
17382;SDS011;8809;51.892;8.384;2022-12-18T10:23:20;12.07;;;6.90;;
17382;SDS011;8809;51.892;8.384;2022-12-18T10:25:53;12.18;;;6.70;;
17382;SDS011;8809;51.892;8.384;2022-12-18T10:28:27;10.65;;;6.97;;
17382;SDS011;8809;51.892;8.384;2022-12-18T10:30:56;9.75;;;6.47;;
17382;SDS011;8809;51.892;8.384;2022-12-18T10:33:27;10.43;;;6.72;;
17382;SDS011;8809;51.892;8.384;2022-12-18T10:35:55;13.75;;;7.35;;
17382;SDS011;8809;51.892;8.384;2022-12-18T10:38:22;10.27;;;6.53;;
17382;SDS011;8809;51.892;8.384;2022-12-18T10:40:52;11.48;;;6.43;;
17382;SDS011;8809;51.892;8.384;2022-12-18T10:43:21;12.98;;;7.13;;
17382;SDS011;8809;51.892;8.384;2022-12-18T10:46:01;11.95;;;6.85;;
17382;SDS011;8809;51.892;8.384;2022-12-18T10:48:40;11.40;;;6.07;;
17382;SDS011;8809;51.892;8.384;2022-12-18T10:51:20;8.23;;;5.85;;
17382;SDS011;8809;51.892;8.384;2022-12-18T10:53:53;9.48;;;6.28;;
17382;SDS011;8809;51.892;8.384;2022-12-18T10:56:24;8.23;;;5.60;;
17382;SDS011;8809;51.892;8.384;2022-12-18T10:58:56;8.23;;;5.53;;
17382;SDS011;8809;51.892;8.384;2022-12-18T11:01:28;9.30;;;5.30;;
17382;SDS011;8809;51.892;8.384;2022-12-18T11:04:13;11.48;;;6.35;;
17382;SDS011;8809;51.892;8.384;2022-12-18T11:06:52;7.97;;;5.13;;
17382;SDS011;8809;51.892;8.384;2022-12-18T11:09:23;8.32;;;5.25;;
17382;SDS011;8809;51.892;8.384;2022-12-18T11:11:52;7.53;;;5.55;;
17382;SDS011;8809;51.892;8.384;2022-12-18T11:14:21;9.13;;;5.90;;
17382;SDS011;8809;51.892;8.384;2022-12-18T11:16:52;8.18;;;5.93;;
17382;SDS011;8809;51.892;8.384;2022-12-18T11:19:21;7.40;;;5.75;;
17382;SDS011;8809;51.892;8.384;2022-12-18T11:21:54;8.40;;;5.63;;
17382;SDS011;8809;51.892;8.384;2022-12-18T11:24:24;5.93;;;4.68;;
17382;SDS011;8809;51.892;8.384;2022-12-18T11:26:56;9.45;;;5.13;;
17382;SDS011;8809;51.892;8.384;2022-12-18T11:29:31;6.80;;;5.18;;
17382;SDS011;8809;51.892;8.384;2022-12-18T11:35:01;7.25;;;4.75;;
17382;SDS011;8809;51.892;8.384;2022-12-18T11:37:37;7.60;;;5.22;;
17382;SDS011;8809;51.892;8.384;2022-12-18T11:40:11;7.60;;;5.38;;
17382;SDS011;8809;51.892;8.384;2022-12-18T11:42:45;6.93;;;4.68;;
17382;SDS011;8809;51.892;8.384;2022-12-18T11:45:26;8.82;;;4.97;;
17382;SDS011;8809;51.892;8.384;2022-12-18T11:48:01;8.20;;;5.47;;
17382;SDS011;8809;51.892;8.384;2022-12-18T11:50:32;7.60;;;4.90;;
17382;SDS011;8809;51.892;8.384;2022-12-18T11:53:09;6.63;;;4.55;;
17382;SDS011;8809;51.892;8.384;2022-12-18T11:55:40;7.28;;;4.63;;
17382;SDS011;8809;51.892;8.384;2022-12-18T11:58:16;7.30;;;4.55;;
17382;SDS011;8809;51.892;8.384;2022-12-18T12:00:56;7.55;;;5.28;;
17382;SDS011;8809;51.892;8.384;2022-12-18T12:06:39;6.40;;;4.40;;
17382;SDS011;8809;51.892;8.384;2022-12-18T12:09:16;7.75;;;4.07;;
17382;SDS011;8809;51.892;8.384;2022-12-18T12:11:53;7.20;;;5.00;;
17382;SDS011;8809;51.892;8.384;2022-12-18T12:14:36;5.78;;;4.00;;
17382;SDS011;8809;51.892;8.384;2022-12-18T12:17:13;5.30;;;4.00;;
17382;SDS011;8809;51.892;8.384;2022-12-18T12:19:51;5.85;;;4.70;;
17382;SDS011;8809;51.892;8.384;2022-12-18T12:22:28;7.35;;;4.18;;
17382;SDS011;8809;51.892;8.384;2022-12-18T12:25:07;5.65;;;4.07;;
17382;SDS011;8809;51.892;8.384;2022-12-18T12:27:49;6.07;;;3.75;;
17382;SDS011;8809;51.892;8.384;2022-12-18T12:30:27;5.03;;;4.07;;
17382;SDS011;8809;51.892;8.384;2022-12-18T12:33:05;9.18;;;5.10;;
17382;SDS011;8809;51.892;8.384;2022-12-18T12:35:49;5.97;;;4.40;;
17382;SDS011;8809;51.892;8.384;2022-12-18T12:38:22;6.65;;;4.10;;
17382;SDS011;8809;51.892;8.384;2022-12-18T12:40:54;5.30;;;3.90;;
17382;SDS011;8809;51.892;8.384;2022-12-18T12:43:28;6.43;;;4.10;;
17382;SDS011;8809;51.892;8.384;2022-12-18T12:46:02;6.55;;;4.38;;
17382;SDS011;8809;51.892;8.384;2022-12-18T12:48:33;7.78;;;3.95;;
17382;SDS011;8809;51.892;8.384;2022-12-18T12:51:08;7.32;;;4.22;;
17382;SDS011;8809;51.892;8.384;2022-12-18T12:53:39;6.15;;;3.95;;
17382;SDS011;8809;51.892;8.384;2022-12-18T12:56:08;6.50;;;3.60;;
17382;SDS011;8809;51.892;8.384;2022-12-18T12:58:41;4.82;;;3.85;;
17382;SDS011;8809;51.892;8.384;2022-12-18T13:01:16;5.63;;;4.35;;
17382;SDS011;8809;51.892;8.384;2022-12-18T13:03:56;6.78;;;4.50;;
17382;SDS011;8809;51.892;8.384;2022-12-18T13:06:35;6.03;;;4.55;;
17382;SDS011;8809;51.892;8.384;2022-12-18T13:09:08;6.13;;;3.90;;
17382;SDS011;8809;51.892;8.384;2022-12-18T13:11:36;5.57;;;3.85;;
17382;SDS011;8809;51.892;8.384;2022-12-18T13:14:29;5.90;;;4.05;;
17382;SDS011;8809;51.892;8.384;2022-12-18T13:17:17;6.50;;;4.22;;
17382;SDS011;8809;51.892;8.384;2022-12-18T13:20:10;6.45;;;4.05;;
17382;SDS011;8809;51.892;8.384;2022-12-18T13:22:43;6.72;;;4.07;;
17382;SDS011;8809;51.892;8.384;2022-12-18T13:28:02;5.45;;;3.72;;
17382;SDS011;8809;51.892;8.384;2022-12-18T13:36:23;5.72;;;4.05;;
17382;SDS011;8809;51.892;8.384;2022-12-18T13:39:11;6.05;;;4.18;;
17382;SDS011;8809;51.892;8.384;2022-12-18T13:45:35;7.22;;;4.57;;
17382;SDS011;8809;51.892;8.384;2022-12-18T13:48:18;6.80;;;4.18;;
17382;SDS011;8809;51.892;8.384;2022-12-18T13:50:55;6.13;;;3.65;;
17382;SDS011;8809;51.892;8.384;2022-12-18T13:53:26;5.88;;;3.92;;
17382;SDS011;8809;51.892;8.384;2022-12-18T13:55:57;6.00;;;3.67;;
17382;SDS011;8809;51.892;8.384;2022-12-18T13:58:24;6.18;;;3.72;;
17382;SDS011;8809;51.892;8.384;2022-12-18T14:00:51;7.90;;;5.07;;
17382;SDS011;8809;51.892;8.384;2022-12-18T14:03:20;5.85;;;3.97;;
17382;SDS011;8809;51.892;8.384;2022-12-18T14:05:55;6.45;;;4.28;;
17382;SDS011;8809;51.892;8.384;2022-12-18T14:08:27;5.88;;;4.03;;
17382;SDS011;8809;51.892;8.384;2022-12-18T14:11:00;7.30;;;4.43;;
17382;SDS011;8809;51.892;8.384;2022-12-18T14:13:32;5.95;;;4.18;;
17382;SDS011;8809;51.892;8.384;2022-12-18T14:16:03;8.90;;;5.50;;
17382;SDS011;8809;51.892;8.384;2022-12-18T14:18:33;7.70;;;4.57;;
17382;SDS011;8809;51.892;8.384;2022-12-18T14:21:14;5.60;;;3.88;;
17382;SDS011;8809;51.892;8.384;2022-12-18T14:23:45;4.38;;;3.42;;
17382;SDS011;8809;51.892;8.384;2022-12-18T14:26:21;6.22;;;3.40;;
17382;SDS011;8809;51.892;8.384;2022-12-18T14:28:50;5.82;;;4.18;;
17382;SDS011;8809;51.892;8.384;2022-12-18T14:31:19;5.85;;;3.90;;
17382;SDS011;8809;51.892;8.384;2022-12-18T14:33:47;5.90;;;3.85;;
17382;SDS011;8809;51.892;8.384;2022-12-18T14:36:15;4.93;;;3.67;;
17382;SDS011;8809;51.892;8.384;2022-12-18T14:38:47;5.10;;;3.72;;
17382;SDS011;8809;51.892;8.384;2022-12-18T14:41:16;4.68;;;3.63;;
17382;SDS011;8809;51.892;8.384;2022-12-18T14:43:46;6.05;;;4.10;;
17382;SDS011;8809;51.892;8.384;2022-12-18T14:46:30;7.82;;;4.60;;
17382;SDS011;8809;51.892;8.384;2022-12-18T14:49:01;8.20;;;4.60;;
17382;SDS011;8809;51.892;8.384;2022-12-18T14:51:30;5.95;;;4.32;;
17382;SDS011;8809;51.892;8.384;2022-12-18T14:53:58;8.00;;;4.68;;
17382;SDS011;8809;51.892;8.384;2022-12-18T14:56:27;9.13;;;5.28;;
17382;SDS011;8809;51.892;8.384;2022-12-18T14:58:57;8.15;;;5.50;;
17382;SDS011;8809;51.892;8.384;2022-12-18T15:01:27;9.30;;;5.25;;
17382;SDS011;8809;51.892;8.384;2022-12-18T15:03:56;5.82;;;4.25;;
17382;SDS011;8809;51.892;8.384;2022-12-18T15:06:26;8.25;;;5.05;;
17382;SDS011;8809;51.892;8.384;2022-12-18T15:08:55;8.95;;;4.93;;
17382;SDS011;8809;51.892;8.384;2022-12-18T15:11:26;7.63;;;5.00;;
17382;SDS011;8809;51.892;8.384;2022-12-18T15:13:54;8.25;;;5.07;;
17382;SDS011;8809;51.892;8.384;2022-12-18T15:16:25;9.73;;;5.70;;
17382;SDS011;8809;51.892;8.384;2022-12-18T15:18:53;9.07;;;5.80;;
17382;SDS011;8809;51.892;8.384;2022-12-18T15:21:20;11.88;;;5.68;;
17382;SDS011;8809;51.892;8.384;2022-12-18T15:23:47;7.78;;;5.22;;
17382;SDS011;8809;51.892;8.384;2022-12-18T15:26:17;8.02;;;4.90;;
17382;SDS011;8809;51.892;8.384;2022-12-18T15:28:45;8.48;;;5.28;;
17382;SDS011;8809;51.892;8.384;2022-12-18T15:34:12;9.23;;;5.65;;
17382;SDS011;8809;51.892;8.384;2022-12-18T15:36:40;8.10;;;5.88;;
17382;SDS011;8809;51.892;8.384;2022-12-18T15:39:09;8.85;;;5.45;;
17382;SDS011;8809;51.892;8.384;2022-12-18T15:41:38;9.70;;;6.18;;